🇳🇱 VeloStatistics

👤 Ivan Terenine

NationaliteitRUS
Geboortedatum1982-06-22
Overlijdensdatum -
Lengte / Gewicht?? cm / ?? kg
Profzeges0
Profzeges 20260
Wedstrijddagen67

🚴 Ploegenhistorie

Geen ploegen gevonden.

🏆 Resultaten (32)

Datum Pos Wedstrijd UCI Ploeg
2006-08-20 5 2006 | Classic de l'Indre (Chateauroux), FRA (20.8) 1.1 -
2006-07-23 16 2006 | Tour of Qinghai Lake, CHN | Rit 9 (23.7) 2.HC -
2006-07-20 20 2006 | Tour of Qinghai Lake, CHN | Rit 6 (20.7) 2.HC -
2006-06-25 16 2006 | N.K. Rusland, RUS (25.6) NC -
2006-06-04 5 2006 | Riga G.P., LAT (4.6) 1.2 -
2006-05-27 19 2006 | G.P. Tartu, EST (27.5) 1.1 -
2006-05-26 15 2006 | EOS Tallinn G.P., EST (26.5) 1.1 -
2006-03-05 8 2006 | Les Monts Luberon - Trophée Luc Leblanc, FRA (5.3) 1.2 -
2006-02-06 16 2006 | Trofeo Alcudia, SPA (6.2) 1.1 -
2005-08-21 30 2005 | Classic de l'Indre (Chateauroux), FRA (21.8) 1.1 -
2005-06-29 2 2005 | Course de Solidarnosc et des Champions Olympiques, POL | Rit 1 (29.6) 2.1 -
2005-06-26 6 2005 | N.K. Rusland, RUS (26.6) NC -
2005-05-09 6 2005 | Five Rings of Moscow, RUS (9.5) 2.2 -
2005-05-06 1 2005 | Five Rings of Moscow, RUS | Rit 3 (6.5) 2.2 -
2005-05-03 1 2005 | Mayor Cup, RUS (3.5) 1.2 -
2005-03-23 4 2005 | Tour de Normandie, FRA | Rit 2 (23.3) 2.2 -
2005-03-18 9 2005 | Classic Loire Atlantique, FRA (18.3) 1.2 -
2005-03-06 11 2005 | Les Monts Luberon - Trophée Luc Leblanc, FRA (6.3) 1.2 -
2004-09-24 4 2004 | Paris - Correze, FRA | Rit 1 (24.9) 2.3 -
2004-09-18 4 2004 | Tour de la Somme, FRA (18.9) 2.5 -
2004-08-30 16 2004 | Boucles de l'Aulne - G.P. Le Telegramme, FRA (30.8) 1.3 -
2004-05-18 4 2004 | Olympia's Tour, NED | Rit 3 (18.5) 2.5 -
2004-04-18 26 2004 | Tour de Vendee, FRA (18.4) 1.3 -
2004-03-24 2 2004 | Tour de Normandie, FRA | Rit 3 (24.3) 2.5 -
2003-06-17 4 2003 | Tour de Serbie, SRB | Rit 1 (17.6) 2.5 -
2003-05-23 23 2003 | EOS Tallinn G.P., EST (23.5) 1.3 -
2003-02-23 1 2003 | Criterium des Espoirs, FRA | Rit 3 (23.2) 2.5 -
2002-09-09 3 2002 | Tour de l'Avenir, FRA | Rit 5 (9.9) 2.5 -
2002-05-25 7 2002 | G.P. Tartu, EST (25.5) 1.5 -
1 2002 | Mainfrankentour, DUI (.) - -
2001-06-09 10 2001 | Ronde de St.-Quentin, FRA (9.6) 1.5 -
2001-04-15 12 2001 | Tour du Maroc, MAR (15.4) 2.5 -